sensor_id;sensor_type;location;lat;lon;timestamp;temperature;humidity
63966;DHT22;50151;52.030;5.350;2024-01-30T00:00:02;5.90;99.90
63966;DHT22;50151;52.030;5.350;2024-01-30T00:02:31;5.90;99.90
63966;DHT22;50151;52.030;5.350;2024-01-30T00:04:58;5.90;99.90
63966;DHT22;50151;52.030;5.350;2024-01-30T00:07:25;5.90;99.90
63966;DHT22;50151;52.030;5.350;2024-01-30T00:09:52;5.90;99.90
63966;DHT22;50151;52.030;5.350;2024-01-30T00:12:18;5.90;99.90
63966;DHT22;50151;52.030;5.350;2024-01-30T00:14:45;5.70;99.90
63966;DHT22;50151;52.030;5.350;2024-01-30T00:17:12;5.80;99.90
63966;DHT22;50151;52.030;5.350;2024-01-30T00:19:39;5.80;99.90
63966;DHT22;50151;52.030;5.350;2024-01-30T00:22:06;5.70;99.90
63966;DHT22;50151;52.030;5.350;2024-01-30T00:24:33;5.70;99.90
63966;DHT22;50151;52.030;5.350;2024-01-30T00:27:00;5.70;99.90
63966;DHT22;50151;52.030;5.350;2024-01-30T00:29:27;5.70;99.90
63966;DHT22;50151;52.030;5.350;2024-01-30T00:31:57;5.60;99.90
63966;DHT22;50151;52.030;5.350;2024-01-30T00:34:23;5.70;99.90
63966;DHT22;50151;52.030;5.350;2024-01-30T00:36:50;5.70;99.90
63966;DHT22;50151;52.030;5.350;2024-01-30T00:39:17;5.70;99.90
63966;DHT22;50151;52.030;5.350;2024-01-30T00:41:46;5.60;99.90
63966;DHT22;50151;52.030;5.350;2024-01-30T00:44:13;5.60;99.90
63966;DHT22;50151;52.030;5.350;2024-01-30T00:46:40;5.60;99.90
63966;DHT22;50151;52.030;5.350;2024-01-30T00:49:06;5.50;99.90
63966;DHT22;50151;52.030;5.350;2024-01-30T00:51:33;5.50;99.90
63966;DHT22;50151;52.030;5.350;2024-01-30T00:54:00;5.50;99.90
63966;DHT22;50151;52.030;5.350;2024-01-30T00:56:27;5.60;99.90
63966;DHT22;50151;52.030;5.350;2024-01-30T00:58:54;5.60;99.90
63966;DHT22;50151;52.030;5.350;2024-01-30T01:01:21;5.60;99.90
63966;DHT22;50151;52.030;5.350;2024-01-30T01:03:48;5.50;99.90
63966;DHT22;50151;52.030;5.350;2024-01-30T01:06:15;5.50;99.90
63966;DHT22;50151;52.030;5.350;2024-01-30T01:08:42;5.50;99.90
63966;DHT22;50151;52.030;5.350;2024-01-30T01:11:09;5.40;99.90
63966;DHT22;50151;52.030;5.350;2024-01-30T01:13:36;5.40;99.90
63966;DHT22;50151;52.030;5.350;2024-01-30T01:16:03;5.40;99.90
63966;DHT22;50151;52.030;5.350;2024-01-30T01:18:30;5.40;99.90
63966;DHT22;50151;52.030;5.350;2024-01-30T01:20:57;5.30;99.90
63966;DHT22;50151;52.030;5.350;2024-01-30T01:23:24;5.40;99.90
63966;DHT22;50151;52.030;5.350;2024-01-30T01:25:51;5.30;99.90
63966;DHT22;50151;52.030;5.350;2024-01-30T01:28:17;5.20;99.90
63966;DHT22;50151;52.030;5.350;2024-01-30T01:30:45;5.30;99.90
63966;DHT22;50151;52.030;5.350;2024-01-30T01:33:13;5.30;99.90
63966;DHT22;50151;52.030;5.350;2024-01-30T01:35:41;5.40;99.90
63966;DHT22;50151;52.030;5.350;2024-01-30T01:38:08;5.50;99.90
63966;DHT22;50151;52.030;5.350;2024-01-30T01:40:34;5.40;99.90
63966;DHT22;50151;52.030;5.350;2024-01-30T01:43:03;5.40;99.90
63966;DHT22;50151;52.030;5.350;2024-01-30T01:45:31;5.50;99.90
63966;DHT22;50151;52.030;5.350;2024-01-30T01:47:58;5.50;99.90
63966;DHT22;50151;52.030;5.350;2024-01-30T01:50:25;5.60;99.90
63966;DHT22;50151;52.030;5.350;2024-01-30T01:52:54;5.60;99.90
63966;DHT22;50151;52.030;5.350;2024-01-30T01:55:22;5.50;99.90
63966;DHT22;50151;52.030;5.350;2024-01-30T01:57:52;5.40;99.90
63966;DHT22;50151;52.030;5.350;2024-01-30T02:00:20;5.40;99.90
63966;DHT22;50151;52.030;5.350;2024-01-30T02:02:46;5.50;99.90
63966;DHT22;50151;52.030;5.350;2024-01-30T02:05:15;5.40;99.90
63966;DHT22;50151;52.030;5.350;2024-01-30T02:07:43;5.40;99.90
63966;DHT22;50151;52.030;5.350;2024-01-30T02:10:10;5.30;99.90
63966;DHT22;50151;52.030;5.350;2024-01-30T02:12:37;5.40;99.90
63966;DHT22;50151;52.030;5.350;2024-01-30T02:15:04;5.30;99.90
63966;DHT22;50151;52.030;5.350;2024-01-30T02:17:31;5.40;99.90
63966;DHT22;50151;52.030;5.350;2024-01-30T02:19:59;5.40;99.90
63966;DHT22;50151;52.030;5.350;2024-01-30T02:22:26;5.40;99.90
63966;DHT22;50151;52.030;5.350;2024-01-30T02:24:53;5.40;99.90
63966;DHT22;50151;52.030;5.350;2024-01-30T02:27:20;5.50;99.90
63966;DHT22;50151;52.030;5.350;2024-01-30T02:29:47;5.50;99.90
63966;DHT22;50151;52.030;5.350;2024-01-30T02:32:13;5.50;99.90
63966;DHT22;50151;52.030;5.350;2024-01-30T02:34:40;5.40;99.90
63966;DHT22;50151;52.030;5.350;2024-01-30T02:37:07;5.40;99.90
63966;DHT22;50151;52.030;5.350;2024-01-30T02:39:34;5.40;99.90
63966;DHT22;50151;52.030;5.350;2024-01-30T02:42:00;5.30;99.90
63966;DHT22;50151;52.030;5.350;2024-01-30T02:44:27;5.40;99.90
63966;DHT22;50151;52.030;5.350;2024-01-30T02:46:54;5.40;99.90
63966;DHT22;50151;52.030;5.350;2024-01-30T02:49:21;5.40;99.90
63966;DHT22;50151;52.030;5.350;2024-01-30T02:51:49;5.40;99.90
63966;DHT22;50151;52.030;5.350;2024-01-30T02:54:15;5.40;99.90
63966;DHT22;50151;52.030;5.350;2024-01-30T02:56:42;5.40;99.90
63966;DHT22;50151;52.030;5.350;2024-01-30T02:59:09;5.30;99.90
63966;DHT22;50151;52.030;5.350;2024-01-30T03:01:45;5.40;99.90
63966;DHT22;50151;52.030;5.350;2024-01-30T03:04:13;5.40;99.90
63966;DHT22;50151;52.030;5.350;2024-01-30T03:06:45;5.40;99.90
63966;DHT22;50151;52.030;5.350;2024-01-30T03:09:12;5.50;99.90
63966;DHT22;50151;52.030;5.350;2024-01-30T03:11:40;5.50;99.90
63966;DHT22;50151;52.030;5.350;2024-01-30T03:14:06;5.50;99.90
63966;DHT22;50151;52.030;5.350;2024-01-30T03:16:34;5.50;99.90
63966;DHT22;50151;52.030;5.350;2024-01-30T03:19:01;5.50;99.90
63966;DHT22;50151;52.030;5.350;2024-01-30T03:21:29;5.50;99.90
63966;DHT22;50151;52.030;5.350;2024-01-30T03:23:56;5.60;99.90
63966;DHT22;50151;52.030;5.350;2024-01-30T03:26:22;5.60;99.90
63966;DHT22;50151;52.030;5.350;2024-01-30T03:28:49;5.70;99.90
63966;DHT22;50151;52.030;5.350;2024-01-30T03:31:16;5.70;99.90
63966;DHT22;50151;52.030;5.350;2024-01-30T03:33:43;5.70;99.90
63966;DHT22;50151;52.030;5.350;2024-01-30T03:36:11;5.70;99.90
63966;DHT22;50151;52.030;5.350;2024-01-30T03:38:37;5.70;99.90
63966;DHT22;50151;52.030;5.350;2024-01-30T03:41:10;5.70;99.90
63966;DHT22;50151;52.030;5.350;2024-01-30T03:43:37;5.60;99.90
63966;DHT22;50151;52.030;5.350;2024-01-30T03:46:04;5.60;99.90
63966;DHT22;50151;52.030;5.350;2024-01-30T03:48:31;5.70;99.90
63966;DHT22;50151;52.030;5.350;2024-01-30T03:50:58;5.60;99.90
63966;DHT22;50151;52.030;5.350;2024-01-30T03:53:24;5.70;99.90
63966;DHT22;50151;52.030;5.350;2024-01-30T03:55:52;5.70;99.90
63966;DHT22;50151;52.030;5.350;2024-01-30T03:58:18;5.70;99.90
63966;DHT22;50151;52.030;5.350;2024-01-30T04:00:45;5.70;99.90
63966;DHT22;50151;52.030;5.350;2024-01-30T04:03:12;5.70;99.90
63966;DHT22;50151;52.030;5.350;2024-01-30T04:05:39;5.80;99.90
63966;DHT22;50151;52.030;5.350;2024-01-30T04:08:06;5.80;99.90
63966;DHT22;50151;52.030;5.350;2024-01-30T04:10:33;5.80;99.90
63966;DHT22;50151;52.030;5.350;2024-01-30T04:13:00;5.80;99.90
63966;DHT22;50151;52.030;5.350;2024-01-30T04:15:27;5.90;99.90
63966;DHT22;50151;52.030;5.350;2024-01-30T04:17:57;5.90;99.90
63966;DHT22;50151;52.030;5.350;2024-01-30T04:20:25;6.00;99.90
63966;DHT22;50151;52.030;5.350;2024-01-30T04:22:52;6.00;99.90
63966;DHT22;50151;52.030;5.350;2024-01-30T04:25:19;6.00;99.90
63966;DHT22;50151;52.030;5.350;2024-01-30T04:27:46;6.00;99.90
63966;DHT22;50151;52.030;5.350;2024-01-30T04:30:13;6.00;99.90
63966;DHT22;50151;52.030;5.350;2024-01-30T04:32:40;6.00;99.90
63966;DHT22;50151;52.030;5.350;2024-01-30T04:35:07;6.00;99.90
63966;DHT22;50151;52.030;5.350;2024-01-30T04:37:37;6.00;99.90
63966;DHT22;50151;52.030;5.350;2024-01-30T04:40:05;6.00;99.90
63966;DHT22;50151;52.030;5.350;2024-01-30T04:42:32;6.00;99.90
63966;DHT22;50151;52.030;5.350;2024-01-30T04:44:59;6.00;99.90
63966;DHT22;50151;52.030;5.350;2024-01-30T04:47:26;6.00;99.90
63966;DHT22;50151;52.030;5.350;2024-01-30T04:49:52;6.00;99.90
63966;DHT22;50151;52.030;5.350;2024-01-30T04:52:19;6.00;99.90
63966;DHT22;50151;52.030;5.350;2024-01-30T04:54:47;6.10;99.90
63966;DHT22;50151;52.030;5.350;2024-01-30T04:57:14;6.10;99.90
63966;DHT22;50151;52.030;5.350;2024-01-30T04:59:40;6.00;99.90
63966;DHT22;50151;52.030;5.350;2024-01-30T05:02:07;6.10;99.90
63966;DHT22;50151;52.030;5.350;2024-01-30T05:04:34;6.10;99.90
63966;DHT22;50151;52.030;5.350;2024-01-30T05:07:01;6.10;99.90
63966;DHT22;50151;52.030;5.350;2024-01-30T05:09:28;6.10;99.90
63966;DHT22;50151;52.030;5.350;2024-01-30T05:11:55;6.10;99.90
63966;DHT22;50151;52.030;5.350;2024-01-30T05:14:22;6.10;99.90
63966;DHT22;50151;52.030;5.350;2024-01-30T05:16:49;6.10;99.90
63966;DHT22;50151;52.030;5.350;2024-01-30T05:19:16;6.10;99.90
63966;DHT22;50151;52.030;5.350;2024-01-30T05:21:44;6.10;99.90
63966;DHT22;50151;52.030;5.350;2024-01-30T05:24:11;6.20;99.90
63966;DHT22;50151;52.030;5.350;2024-01-30T05:26:37;6.10;99.90
63966;DHT22;50151;52.030;5.350;2024-01-30T05:29:05;6.20;99.90
63966;DHT22;50151;52.030;5.350;2024-01-30T05:31:32;6.10;99.90
63966;DHT22;50151;52.030;5.350;2024-01-30T05:33:59;6.20;99.90
63966;DHT22;50151;52.030;5.350;2024-01-30T05:36:26;6.10;99.90
63966;DHT22;50151;52.030;5.350;2024-01-30T05:38:53;6.20;99.90
63966;DHT22;50151;52.030;5.350;2024-01-30T05:41:20;6.20;99.90
63966;DHT22;50151;52.030;5.350;2024-01-30T05:43:47;6.30;99.90
63966;DHT22;50151;52.030;5.350;2024-01-30T05:46:14;6.20;99.90
63966;DHT22;50151;52.030;5.350;2024-01-30T05:48:41;6.30;99.90
63966;DHT22;50151;52.030;5.350;2024-01-30T05:51:08;6.30;99.90
63966;DHT22;50151;52.030;5.350;2024-01-30T05:53:35;6.30;99.90
63966;DHT22;50151;52.030;5.350;2024-01-30T05:56:02;6.30;99.90
63966;DHT22;50151;52.030;5.350;2024-01-30T05:58:29;6.40;99.90
63966;DHT22;50151;52.030;5.350;2024-01-30T06:00:57;6.40;99.90
63966;DHT22;50151;52.030;5.350;2024-01-30T06:03:25;6.30;99.90
63966;DHT22;50151;52.030;5.350;2024-01-30T06:05:52;6.30;99.90
63966;DHT22;50151;52.030;5.350;2024-01-30T06:08:18;6.30;99.90
63966;DHT22;50151;52.030;5.350;2024-01-30T06:10:45;6.40;99.90
63966;DHT22;50151;52.030;5.350;2024-01-30T06:13:12;6.40;99.90
63966;DHT22;50151;52.030;5.350;2024-01-30T06:15:39;6.40;99.90
63966;DHT22;50151;52.030;5.350;2024-01-30T06:18:06;6.40;99.90
63966;DHT22;50151;52.030;5.350;2024-01-30T06:20:33;6.40;99.90
63966;DHT22;50151;52.030;5.350;2024-01-30T06:23:00;6.40;99.90
63966;DHT22;50151;52.030;5.350;2024-01-30T06:25:27;6.40;99.90
63966;DHT22;50151;52.030;5.350;2024-01-30T06:27:54;6.40;99.90
63966;DHT22;50151;52.030;5.350;2024-01-30T06:30:21;6.40;99.90
63966;DHT22;50151;52.030;5.350;2024-01-30T06:32:47;6.40;99.90
63966;DHT22;50151;52.030;5.350;2024-01-30T06:35:15;6.40;99.90
63966;DHT22;50151;52.030;5.350;2024-01-30T06:37:41;6.40;99.90
63966;DHT22;50151;52.030;5.350;2024-01-30T06:40:09;6.50;99.90
63966;DHT22;50151;52.030;5.350;2024-01-30T06:42:36;6.50;99.90
63966;DHT22;50151;52.030;5.350;2024-01-30T06:45:03;6.40;99.90
63966;DHT22;50151;52.030;5.350;2024-01-30T06:47:29;6.40;99.90
63966;DHT22;50151;52.030;5.350;2024-01-30T06:49:57;6.50;99.90
63966;DHT22;50151;52.030;5.350;2024-01-30T06:52:24;6.50;99.90
63966;DHT22;50151;52.030;5.350;2024-01-30T06:54:51;6.50;99.90
63966;DHT22;50151;52.030;5.350;2024-01-30T06:57:18;6.50;99.90
63966;DHT22;50151;52.030;5.350;2024-01-30T06:59:44;6.50;99.90
63966;DHT22;50151;52.030;5.350;2024-01-30T07:02:11;6.50;99.90
63966;DHT22;50151;52.030;5.350;2024-01-30T07:04:38;6.60;99.90
63966;DHT22;50151;52.030;5.350;2024-01-30T07:07:12;6.50;99.90
63966;DHT22;50151;52.030;5.350;2024-01-30T07:09:40;6.50;99.90
63966;DHT22;50151;52.030;5.350;2024-01-30T07:12:07;6.50;99.90
63966;DHT22;50151;52.030;5.350;2024-01-30T07:14:35;6.50;99.90
63966;DHT22;50151;52.030;5.350;2024-01-30T07:17:02;6.50;99.90
63966;DHT22;50151;52.030;5.350;2024-01-30T07:19:29;6.50;99.90
63966;DHT22;50151;52.030;5.350;2024-01-30T07:21:56;6.50;99.90
63966;DHT22;50151;52.030;5.350;2024-01-30T07:24:23;6.50;99.90
63966;DHT22;50151;52.030;5.350;2024-01-30T07:26:49;6.50;99.90
63966;DHT22;50151;52.030;5.350;2024-01-30T07:29:16;6.50;99.90
63966;DHT22;50151;52.030;5.350;2024-01-30T07:31:43;6.50;99.90
63966;DHT22;50151;52.030;5.350;2024-01-30T07:34:10;6.60;99.90
63966;DHT22;50151;52.030;5.350;2024-01-30T07:36:37;6.60;99.90
63966;DHT22;50151;52.030;5.350;2024-01-30T07:39:05;6.60;99.90
63966;DHT22;50151;52.030;5.350;2024-01-30T07:41:32;6.60;99.90
63966;DHT22;50151;52.030;5.350;2024-01-30T07:44:00;6.60;99.90
63966;DHT22;50151;52.030;5.350;2024-01-30T07:46:26;6.70;99.90
63966;DHT22;50151;52.030;5.350;2024-01-30T07:48:53;6.70;99.90
63966;DHT22;50151;52.030;5.350;2024-01-30T07:51:21;6.80;99.90
63966;DHT22;50151;52.030;5.350;2024-01-30T07:53:51;6.90;99.90
63966;DHT22;50151;52.030;5.350;2024-01-30T07:56:18;6.90;99.90
63966;DHT22;50151;52.030;5.350;2024-01-30T07:58:45;7.00;99.90
63966;DHT22;50151;52.030;5.350;2024-01-30T08:01:12;7.10;99.90
63966;DHT22;50151;52.030;5.350;2024-01-30T08:03:39;7.30;99.90
63966;DHT22;50151;52.030;5.350;2024-01-30T08:06:08;7.30;99.90
63966;DHT22;50151;52.030;5.350;2024-01-30T08:08:34;7.40;99.90
63966;DHT22;50151;52.030;5.350;2024-01-30T08:11:01;7.60;99.90
63966;DHT22;50151;52.030;5.350;2024-01-30T08:13:28;7.70;99.90
63966;DHT22;50151;52.030;5.350;2024-01-30T08:15:55;7.70;99.90
63966;DHT22;50151;52.030;5.350;2024-01-30T08:18:21;7.90;99.90
63966;DHT22;50151;52.030;5.350;2024-01-30T08:20:48;8.00;99.90
63966;DHT22;50151;52.030;5.350;2024-01-30T08:23:15;8.00;99.90
63966;DHT22;50151;52.030;5.350;2024-01-30T08:25:42;8.20;99.90
63966;DHT22;50151;52.030;5.350;2024-01-30T08:28:09;8.30;99.90
63966;DHT22;50151;52.030;5.350;2024-01-30T08:30:36;8.30;99.90
63966;DHT22;50151;52.030;5.350;2024-01-30T08:33:02;8.40;99.90
63966;DHT22;50151;52.030;5.350;2024-01-30T08:35:29;8.50;99.90
63966;DHT22;50151;52.030;5.350;2024-01-30T08:38:00;8.70;99.90
63966;DHT22;50151;52.030;5.350;2024-01-30T08:40:27;8.80;99.90
63966;DHT22;50151;52.030;5.350;2024-01-30T08:42:54;8.90;99.90
63966;DHT22;50151;52.030;5.350;2024-01-30T08:45:21;9.00;99.90
63966;DHT22;50151;52.030;5.350;2024-01-30T08:47:47;9.10;99.90
63966;DHT22;50151;52.030;5.350;2024-01-30T08:50:14;9.10;99.90
63966;DHT22;50151;52.030;5.350;2024-01-30T08:52:41;9.10;99.90
63966;DHT22;50151;52.030;5.350;2024-01-30T08:55:08;9.10;99.90
63966;DHT22;50151;52.030;5.350;2024-01-30T08:57:36;9.20;99.90
63966;DHT22;50151;52.030;5.350;2024-01-30T09:00:03;9.20;99.90
63966;DHT22;50151;52.030;5.350;2024-01-30T09:02:34;9.50;99.90
63966;DHT22;50151;52.030;5.350;2024-01-30T09:05:01;9.70;99.90
63966;DHT22;50151;52.030;5.350;2024-01-30T09:07:27;9.70;99.90
63966;DHT22;50151;52.030;5.350;2024-01-30T09:09:54;9.70;99.90
63966;DHT22;50151;52.030;5.350;2024-01-30T09:12:21;9.70;99.90
63966;DHT22;50151;52.030;5.350;2024-01-30T09:14:48;9.80;99.90
63966;DHT22;50151;52.030;5.350;2024-01-30T09:17:14;9.80;99.90
63966;DHT22;50151;52.030;5.350;2024-01-30T09:19:41;10.10;99.90
63966;DHT22;50151;52.030;5.350;2024-01-30T09:22:08;10.00;99.90
63966;DHT22;50151;52.030;5.350;2024-01-30T09:24:35;10.10;99.90
63966;DHT22;50151;52.030;5.350;2024-01-30T09:27:02;10.10;99.90
63966;DHT22;50151;52.030;5.350;2024-01-30T09:29:29;10.10;99.90
63966;DHT22;50151;52.030;5.350;2024-01-30T09:31:56;10.10;99.90
63966;DHT22;50151;52.030;5.350;2024-01-30T09:34:22;10.10;99.90
63966;DHT22;50151;52.030;5.350;2024-01-30T09:36:49;10.10;99.90
63966;DHT22;50151;52.030;5.350;2024-01-30T09:39:16;10.20;99.90
63966;DHT22;50151;52.030;5.350;2024-01-30T09:41:48;10.20;99.90
63966;DHT22;50151;52.030;5.350;2024-01-30T09:44:16;10.20;99.90
63966;DHT22;50151;52.030;5.350;2024-01-30T09:46:46;10.10;99.90
63966;DHT22;50151;52.030;5.350;2024-01-30T09:49:14;10.30;99.90
63966;DHT22;50151;52.030;5.350;2024-01-30T09:51:44;10.30;99.90
63966;DHT22;50151;52.030;5.350;2024-01-30T09:54:14;10.30;99.90
63966;DHT22;50151;52.030;5.350;2024-01-30T09:56:40;10.30;99.90
63966;DHT22;50151;52.030;5.350;2024-01-30T09:59:07;10.40;99.90
63966;DHT22;50151;52.030;5.350;2024-01-30T10:01:35;10.40;99.90
63966;DHT22;50151;52.030;5.350;2024-01-30T10:04:04;10.40;99.90
63966;DHT22;50151;52.030;5.350;2024-01-30T10:06:31;10.50;99.90
63966;DHT22;50151;52.030;5.350;2024-01-30T10:08:58;10.50;99.90
63966;DHT22;50151;52.030;5.350;2024-01-30T10:11:24;10.50;99.90
63966;DHT22;50151;52.030;5.350;2024-01-30T10:13:51;10.50;99.90
63966;DHT22;50151;52.030;5.350;2024-01-30T10:16:18;10.50;99.90
63966;DHT22;50151;52.030;5.350;2024-01-30T10:18:45;10.50;99.90
63966;DHT22;50151;52.030;5.350;2024-01-30T10:21:12;10.50;99.90
63966;DHT22;50151;52.030;5.350;2024-01-30T10:23:39;10.70;99.90
63966;DHT22;50151;52.030;5.350;2024-01-30T10:26:07;10.80;99.90
63966;DHT22;50151;52.030;5.350;2024-01-30T10:28:34;10.90;99.90
63966;DHT22;50151;52.030;5.350;2024-01-30T10:31:01;10.90;99.90
63966;DHT22;50151;52.030;5.350;2024-01-30T10:33:32;11.00;99.90
63966;DHT22;50151;52.030;5.350;2024-01-30T10:36:04;11.10;99.90
63966;DHT22;50151;52.030;5.350;2024-01-30T10:38:32;11.10;99.90
63966;DHT22;50151;52.030;5.350;2024-01-30T10:41:02;11.10;99.90
63966;DHT22;50151;52.030;5.350;2024-01-30T10:43:34;11.30;99.90
63966;DHT22;50151;52.030;5.350;2024-01-30T10:46:18;11.30;99.90
63966;DHT22;50151;52.030;5.350;2024-01-30T10:48:59;11.20;99.90
63966;DHT22;50151;52.030;5.350;2024-01-30T10:51:29;11.20;99.90
63966;DHT22;50151;52.030;5.350;2024-01-30T10:53:57;11.20;99.90
63966;DHT22;50151;52.030;5.350;2024-01-30T10:56:25;11.20;99.90
63966;DHT22;50151;52.030;5.350;2024-01-30T10:58:52;11.20;99.90
63966;DHT22;50151;52.030;5.350;2024-01-30T11:01:21;11.20;99.90
63966;DHT22;50151;52.030;5.350;2024-01-30T11:03:52;11.30;99.90
63966;DHT22;50151;52.030;5.350;2024-01-30T11:06:22;11.30;99.90
63966;DHT22;50151;52.030;5.350;2024-01-30T11:09:09;11.40;99.90
63966;DHT22;50151;52.030;5.350;2024-01-30T11:11:50;11.40;99.90
63966;DHT22;50151;52.030;5.350;2024-01-30T11:14:23;11.40;99.90
63966;DHT22;50151;52.030;5.350;2024-01-30T11:16:51;11.40;99.90
63966;DHT22;50151;52.030;5.350;2024-01-30T11:19:30;11.50;99.90
63966;DHT22;50151;52.030;5.350;2024-01-30T11:21:57;11.50;99.90
63966;DHT22;50151;52.030;5.350;2024-01-30T11:24:25;11.60;99.90
63966;DHT22;50151;52.030;5.350;2024-01-30T11:26:56;11.50;99.90
63966;DHT22;50151;52.030;5.350;2024-01-30T11:29:28;11.40;99.90
63966;DHT22;50151;52.030;5.350;2024-01-30T11:31:58;11.30;99.90
63966;DHT22;50151;52.030;5.350;2024-01-30T11:34:25;11.30;99.90
63966;DHT22;50151;52.030;5.350;2024-01-30T11:36:59;11.30;99.90
63966;DHT22;50151;52.030;5.350;2024-01-30T11:39:26;11.10;99.90
63966;DHT22;50151;52.030;5.350;2024-01-30T11:41:54;11.00;99.90
63966;DHT22;50151;52.030;5.350;2024-01-30T11:44:21;10.90;99.90
63966;DHT22;50151;52.030;5.350;2024-01-30T11:46:49;10.80;99.90
63966;DHT22;50151;52.030;5.350;2024-01-30T11:49:16;10.80;99.90
63966;DHT22;50151;52.030;5.350;2024-01-30T11:51:46;10.80;99.90
63966;DHT22;50151;52.030;5.350;2024-01-30T11:54:18;10.80;99.90
63966;DHT22;50151;52.030;5.350;2024-01-30T11:56:45;10.90;99.90
63966;DHT22;50151;52.030;5.350;2024-01-30T11:59:11;10.90;99.90
63966;DHT22;50151;52.030;5.350;2024-01-30T12:01:38;11.00;99.90
63966;DHT22;50151;52.030;5.350;2024-01-30T12:04:05;11.20;99.90
63966;DHT22;50151;52.030;5.350;2024-01-30T12:06:37;11.20;99.90
63966;DHT22;50151;52.030;5.350;2024-01-30T12:09:04;11.10;99.90
63966;DHT22;50151;52.030;5.350;2024-01-30T12:11:31;11.20;99.90
63966;DHT22;50151;52.030;5.350;2024-01-30T12:13:58;11.10;99.90
63966;DHT22;50151;52.030;5.350;2024-01-30T12:16:25;10.90;99.90
63966;DHT22;50151;52.030;5.350;2024-01-30T12:19:00;10.80;99.90
63966;DHT22;50151;52.030;5.350;2024-01-30T12:21:28;10.70;99.90
63966;DHT22;50151;52.030;5.350;2024-01-30T12:23:56;10.70;99.90
63966;DHT22;50151;52.030;5.350;2024-01-30T12:26:24;10.60;99.90
63966;DHT22;50151;52.030;5.350;2024-01-30T12:28:55;10.30;99.90
63966;DHT22;50151;52.030;5.350;2024-01-30T12:31:26;10.40;99.90
63966;DHT22;50151;52.030;5.350;2024-01-30T12:33:56;10.20;99.90
63966;DHT22;50151;52.030;5.350;2024-01-30T12:36:25;10.10;99.90
63966;DHT22;50151;52.030;5.350;2024-01-30T12:38:52;10.00;99.90
63966;DHT22;50151;52.030;5.350;2024-01-30T12:41:20;10.10;99.90
63966;DHT22;50151;52.030;5.350;2024-01-30T12:43:47;10.00;99.90
63966;DHT22;50151;52.030;5.350;2024-01-30T12:46:17;9.90;99.90
63966;DHT22;50151;52.030;5.350;2024-01-30T12:48:44;9.70;99.90
63966;DHT22;50151;52.030;5.350;2024-01-30T12:51:11;9.70;99.90
63966;DHT22;50151;52.030;5.350;2024-01-30T12:53:38;9.70;99.90
63966;DHT22;50151;52.030;5.350;2024-01-30T12:56:05;9.60;99.90
63966;DHT22;50151;52.030;5.350;2024-01-30T12:58:32;9.50;99.90
63966;DHT22;50151;52.030;5.350;2024-01-30T13:00:59;9.50;99.90
63966;DHT22;50151;52.030;5.350;2024-01-30T13:03:26;9.50;99.90
63966;DHT22;50151;52.030;5.350;2024-01-30T13:05:55;9.50;99.90
63966;DHT22;50151;52.030;5.350;2024-01-30T13:08:22;9.40;99.90
63966;DHT22;50151;52.030;5.350;2024-01-30T13:10:48;9.50;99.90
63966;DHT22;50151;52.030;5.350;2024-01-30T13:13:16;9.60;99.90
63966;DHT22;50151;52.030;5.350;2024-01-30T13:15:47;9.70;99.90
63966;DHT22;50151;52.030;5.350;2024-01-30T13:18:15;9.70;99.90
63966;DHT22;50151;52.030;5.350;2024-01-30T13:20:42;9.70;99.90
63966;DHT22;50151;52.030;5.350;2024-01-30T13:23:09;9.80;99.90
63966;DHT22;50151;52.030;5.350;2024-01-30T13:25:36;9.60;99.90
63966;DHT22;50151;52.030;5.350;2024-01-30T13:28:03;9.60;99.90
63966;DHT22;50151;52.030;5.350;2024-01-30T13:30:30;9.60;99.90
63966;DHT22;50151;52.030;5.350;2024-01-30T13:32:57;9.50;99.90
63966;DHT22;50151;52.030;5.350;2024-01-30T13:35:25;9.40;99.90
63966;DHT22;50151;52.030;5.350;2024-01-30T13:37:52;9.50;99.90
63966;DHT22;50151;52.030;5.350;2024-01-30T13:40:18;9.50;99.90
63966;DHT22;50151;52.030;5.350;2024-01-30T13:42:45;9.30;99.90
63966;DHT22;50151;52.030;5.350;2024-01-30T13:45:12;9.20;99.90
63966;DHT22;50151;52.030;5.350;2024-01-30T13:47:39;9.20;99.90
63966;DHT22;50151;52.030;5.350;2024-01-30T13:50:06;9.20;99.90
63966;DHT22;50151;52.030;5.350;2024-01-30T13:52:34;9.10;99.90
63966;DHT22;50151;52.030;5.350;2024-01-30T13:55:10;9.10;99.90
63966;DHT22;50151;52.030;5.350;2024-01-30T13:57:37;9.10;99.90
63966;DHT22;50151;52.030;5.350;2024-01-30T14:00:05;9.20;99.90
63966;DHT22;50151;52.030;5.350;2024-01-30T14:02:35;9.20;99.90
63966;DHT22;50151;52.030;5.350;2024-01-30T14:05:02;9.20;99.90
63966;DHT22;50151;52.030;5.350;2024-01-30T14:07:31;9.20;99.90
63966;DHT22;50151;52.030;5.350;2024-01-30T14:09:59;9.20;99.90
63966;DHT22;50151;52.030;5.350;2024-01-30T14:12:26;9.20;99.90
63966;DHT22;50151;52.030;5.350;2024-01-30T14:14:53;9.20;99.90
63966;DHT22;50151;52.030;5.350;2024-01-30T14:17:19;9.20;99.90
63966;DHT22;50151;52.030;5.350;2024-01-30T14:19:46;9.20;99.90
63966;DHT22;50151;52.030;5.350;2024-01-30T14:22:13;9.10;99.90
63966;DHT22;50151;52.030;5.350;2024-01-30T14:24:40;9.00;99.90
63966;DHT22;50151;52.030;5.350;2024-01-30T14:27:06;9.10;99.90
63966;DHT22;50151;52.030;5.350;2024-01-30T14:29:35;9.10;99.90
63966;DHT22;50151;52.030;5.350;2024-01-30T14:32:02;9.10;99.90
63966;DHT22;50151;52.030;5.350;2024-01-30T14:34:30;9.00;99.90
63966;DHT22;50151;52.030;5.350;2024-01-30T14:36:57;9.00;99.90
63966;DHT22;50151;52.030;5.350;2024-01-30T14:39:24;9.10;99.90
63966;DHT22;50151;52.030;5.350;2024-01-30T14:41:51;9.00;99.90
63966;DHT22;50151;52.030;5.350;2024-01-30T14:44:18;8.90;99.90
63966;DHT22;50151;52.030;5.350;2024-01-30T14:46:45;8.80;99.90
63966;DHT22;50151;52.030;5.350;2024-01-30T14:49:11;8.80;99.90
63966;DHT22;50151;52.030;5.350;2024-01-30T14:51:38;8.70;99.90
63966;DHT22;50151;52.030;5.350;2024-01-30T14:54:05;8.60;99.90
63966;DHT22;50151;52.030;5.350;2024-01-30T14:56:33;8.60;99.90
63966;DHT22;50151;52.030;5.350;2024-01-30T14:59:01;8.50;99.90
63966;DHT22;50151;52.030;5.350;2024-01-30T15:01:28;8.50;99.90
63966;DHT22;50151;52.030;5.350;2024-01-30T15:03:55;8.50;99.90
63966;DHT22;50151;52.030;5.350;2024-01-30T15:06:22;8.50;99.90
63966;DHT22;50151;52.030;5.350;2024-01-30T15:08:52;8.50;99.90
63966;DHT22;50151;52.030;5.350;2024-01-30T15:11:20;8.50;99.90
63966;DHT22;50151;52.030;5.350;2024-01-30T15:13:46;8.40;99.90
63966;DHT22;50151;52.030;5.350;2024-01-30T15:16:14;8.50;99.90
63966;DHT22;50151;52.030;5.350;2024-01-30T15:18:41;8.40;99.90
63966;DHT22;50151;52.030;5.350;2024-01-30T15:21:08;8.40;99.90
63966;DHT22;50151;52.030;5.350;2024-01-30T15:23:35;8.40;99.90
63966;DHT22;50151;52.030;5.350;2024-01-30T15:26:01;8.40;99.90
63966;DHT22;50151;52.030;5.350;2024-01-30T15:28:36;8.30;99.90
63966;DHT22;50151;52.030;5.350;2024-01-30T15:31:04;8.30;99.90
63966;DHT22;50151;52.030;5.350;2024-01-30T15:33:32;8.30;99.90
63966;DHT22;50151;52.030;5.350;2024-01-30T15:36:00;8.30;99.90
63966;DHT22;50151;52.030;5.350;2024-01-30T15:38:27;8.20;99.90
63966;DHT22;50151;52.030;5.350;2024-01-30T15:40:55;8.30;99.90
63966;DHT22;50151;52.030;5.350;2024-01-30T15:43:23;8.20;99.90